Time;durP1;ratioP1;P1;durP2;ratioP2;P2;SDS_P1;SDS_P2;PMS_P1;PMS_P2;Temp;Humidity;BMP_temperature;BMP_pressure;BME280_temperature;BME280_humidity;BME280_pressure;Samples;Min_cycle;Max_cycle;Signal;HPM_P1;HPM_P2
2023/03/20 00:00:38;;;;;;;13.32;5.40;;;;;;;;;;5053851;28;20048;-63
2023/03/20 00:03:05;;;;;;;;;;;;;;;;;;5035200;28;20067;-63
2023/03/20 00:05:32;;;;;;;11.25;5.18;;;;;;;;;;5054439;28;19925;-63
2023/03/20 00:07:58;;;;;;;11.30;4.90;;;;;;;;;;5048561;28;20055;-64
2023/03/20 00:10:26;;;;;;;12.93;5.53;;;;;;;;;;5031889;28;20056;-64
2023/03/20 00:12:52;;;;;;;12.77;4.90;;;;;;;;;;5034385;28;20244;-64
2023/03/20 00:15:29;;;;;;;12.30;4.60;;;;;;;;;;5035700;28;20195;-64
2023/03/20 00:17:58;;;;;;;13.07;4.90;;;;;;;;;;5046031;28;20060;-63
2023/03/20 00:20:24;;;;;;;13.73;5.50;;;;;;;;;;5029524;28;20065;-63
2023/03/20 00:22:51;;;;;;;11.68;4.75;;;;;;;;;;5019122;28;20068;-64
2023/03/20 00:25:19;;;;;;;13.25;5.47;;;;;;;;;;5032408;28;20067;-63
2023/03/20 00:27:46;;;;;;;14.55;5.65;;;;;;;;;;5054592;28;20056;-63
2023/03/20 00:30:24;;;;;;;14.30;5.43;;;;;;;;;;5047732;28;20357;-64
2023/03/20 00:32:50;;;;;;;13.50;5.10;;;;;;;;;;5034505;28;20167;-64
2023/03/20 00:35:23;;;;;;;12.45;5.20;;;;;;;;;;5035852;28;20081;-63
2023/03/20 00:37:50;;;;;;;13.82;5.55;;;;;;;;;;5030438;28;20191;-63
2023/03/20 00:40:17;;;;;;;11.50;4.68;;;;;;;;;;5037645;28;20122;-64
2023/03/20 00:42:45;;;;;;;10.50;4.95;;;;;;;;;;5013815;28;20049;-63
2023/03/20 00:45:13;;;;;;;11.77;4.72;;;;;;;;;;5033104;28;20115;-64
2023/03/20 00:47:40;;;;;;;13.13;4.97;;;;;;;;;;5056726;28;20048;-63
2023/03/20 00:50:07;;;;;;;12.68;5.20;;;;;;;;;;5044478;28;20140;-64
2023/03/20 00:52:36;;;;;;;15.10;5.10;;;;;;;;;;5017528;28;20070;-63
2023/03/20 00:55:02;;;;;;;11.30;5.10;;;;;;;;;;5049702;28;20053;-64
2023/03/20 00:57:30;;;;;;;12.48;5.47;;;;;;;;;;5016777;28;20063;-64
2023/03/20 00:59:59;;;;;;;17.50;5.20;;;;;;;;;;5034231;28;20095;-63
2023/03/20 01:02:27;;;;;;;11.20;4.70;;;;;;;;;;5030857;28;20118;-64
2023/03/20 01:04:54;;;;;;;14.95;6.22;;;;;;;;;;5016505;28;20062;-63
2023/03/20 01:07:21;;;;;;;12.10;5.13;;;;;;;;;;5034435;28;20063;-64
2023/03/20 01:09:49;;;;;;;12.95;5.18;;;;;;;;;;5037082;28;20178;-65
2023/03/20 01:12:16;;;;;;;14.00;6.28;;;;;;;;;;5016009;28;20111;-63
2023/03/20 01:14:43;;;;;;;16.02;6.13;;;;;;;;;;5012991;28;20092;-64
2023/03/20 01:17:11;;;;;;;12.25;5.63;;;;;;;;;;5028861;28;20063;-66
2023/03/20 01:19:37;;;;;;;12.23;5.70;;;;;;;;;;5038645;28;20144;-64
2023/03/20 01:22:03;;;;;;;12.35;5.35;;;;;;;;;;5034666;28;20060;-63
2023/03/20 01:24:30;;;;;;;13.68;5.43;;;;;;;;;;5047460;28;20066;-63
2023/03/20 01:27:02;;;;;;;13.02;5.88;;;;;;;;;;5033342;28;20056;-63
2023/03/20 01:29:29;;;;;;;15.13;5.65;;;;;;;;;;5046427;28;20060;-63
2023/03/20 01:31:55;;;;;;;15.05;5.35;;;;;;;;;;5047804;28;20068;-64
2023/03/20 01:34:22;;;;;;;13.40;5.65;;;;;;;;;;5031088;28;20066;-66
2023/03/20 01:36:49;;;;;;;14.75;5.93;;;;;;;;;;5041363;28;20075;-63
2023/03/20 01:39:17;;;;;;;12.82;5.70;;;;;;;;;;5036393;28;20072;-63
2023/03/20 01:41:45;;;;;;;12.38;5.45;;;;;;;;;;5020353;28;20134;-63
2023/03/20 01:44:19;;;;;;;11.57;4.88;;;;;;;;;;5035897;28;20064;-63
2023/03/20 01:46:45;;;;;;;12.13;4.85;;;;;;;;;;5027016;28;20065;-63
2023/03/20 01:49:27;;;;;;;12.13;4.97;;;;;;;;;;5017389;28;20181;-63
2023/03/20 01:51:55;;;;;;;12.10;5.00;;;;;;;;;;5015123;28;20076;-63
2023/03/20 01:54:22;;;;;;;12.20;4.75;;;;;;;;;;5052265;28;20075;-67
2023/03/20 01:56:51;;;;;;;10.77;4.63;;;;;;;;;;5030690;28;20056;-64
2023/03/20 01:59:21;;;;;;;14.63;4.88;;;;;;;;;;5017839;28;20318;-63
2023/03/20 02:01:48;;;;;;;11.00;4.20;;;;;;;;;;5039760;28;20122;-65
2023/03/20 02:04:16;;;;;;;11.70;4.70;;;;;;;;;;5032999;28;20056;-63
2023/03/20 02:06:43;;;;;;;10.85;4.40;;;;;;;;;;5007813;28;20164;-63
2023/03/20 02:09:10;;;;;;;11.95;4.45;;;;;;;;;;5042089;28;20113;-63
2023/03/20 02:11:38;;;;;;;11.20;4.50;;;;;;;;;;5037457;28;20080;-64
2023/03/20 02:14:05;;;;;;;10.50;4.65;;;;;;;;;;5032588;28;20077;-64
2023/03/20 02:16:33;;;;;;;9.88;4.35;;;;;;;;;;5046918;28;20135;-64
2023/03/20 02:18:59;;;;;;;8.27;3.58;;;;;;;;;;5020775;28;20134;-64
2023/03/20 02:21:43;;;;;;;10.60;4.25;;;;;;;;;;5018901;28;20122;-63
2023/03/20 02:24:24;;;;;;;9.32;3.85;;;;;;;;;;5026919;28;20054;-63
2023/03/20 02:26:58;;;;;;;9.75;4.10;;;;;;;;;;5048955;28;20048;-64
2023/03/20 02:29:38;;;;;;;9.57;4.15;;;;;;;;;;5028501;28;20091;-64
2023/03/20 02:32:19;;;;;;;9.32;4.03;;;;;;;;;;5042956;28;20060;-63
2023/03/20 02:34:56;;;;;;;12.50;3.85;;;;;;;;;;5031941;28;20058;-63
2023/03/20 02:37:38;;;;;;;9.20;3.28;;;;;;;;;;5031291;28;20057;-64
2023/03/20 02:40:18;;;;;;;10.02;3.35;;;;;;;;;;5047170;28;20166;-64
2023/03/20 02:42:46;;;;;;;9.27;3.70;;;;;;;;;;5013177;28;20061;-63
2023/03/20 02:45:16;;;;;;;7.80;3.33;;;;;;;;;;5018988;28;20183;-64
2023/03/20 02:47:48;;;;;;;9.30;4.13;;;;;;;;;;5013009;28;20057;-64
2023/03/20 02:50:16;;;;;;;9.00;3.45;;;;;;;;;;5009062;28;20054;-64
2023/03/20 02:52:48;;;;;;;10.43;3.70;;;;;;;;;;4992548;28;20061;-63
2023/03/20 02:55:16;;;;;;;8.25;3.67;;;;;;;;;;5011408;28;20256;-63
2023/03/20 02:57:47;;;;;;;8.93;3.20;;;;;;;;;;5016332;28;20071;-63
2023/03/20 03:00:23;;;;;;;9.15;3.65;;;;;;;;;;5008406;28;20119;-64
2023/03/20 03:02:51;;;;;;;8.45;3.40;;;;;;;;;;5030458;28;20052;-64
2023/03/20 03:05:21;;;;;;;8.77;3.60;;;;;;;;;;4965379;28;20155;-63
2023/03/20 03:07:51;;;;;;;11.18;4.07;;;;;;;;;;5031977;28;20053;-63
2023/03/20 03:10:21;;;;;;;8.05;3.33;;;;;;;;;;5018383;28;20045;-63
2023/03/20 03:12:48;;;;;;;8.90;3.55;;;;;;;;;;5023896;28;20057;-63
2023/03/20 03:15:16;;;;;;;9.20;3.53;;;;;;;;;;5024703;28;20299;-64
2023/03/20 03:17:44;;;;;;;12.63;4.05;;;;;;;;;;5037907;28;20059;-64
2023/03/20 03:20:17;;;;;;;8.68;3.70;;;;;;;;;;5021066;28;20061;-63
2023/03/20 03:22:43;;;;;;;9.02;3.47;;;;;;;;;;5004183;28;20293;-64
2023/03/20 03:25:12;;;;;;;11.82;3.55;;;;;;;;;;5012252;28;20057;-64
2023/03/20 03:27:41;;;;;;;9.95;3.60;;;;;;;;;;5022258;28;20064;-64
2023/03/20 03:30:10;;;;;;;8.60;3.55;;;;;;;;;;5006080;28;20081;-64
2023/03/20 03:32:39;;;;;;;9.60;3.35;;;;;;;;;;5009243;28;20126;-64
2023/03/20 03:35:05;;;;;;;;;;;;;;;;;;5028736;28;20053;-64
2023/03/20 03:37:45;;;;;;;9.18;3.47;;;;;;;;;;5008935;28;19971;-63
2023/03/20 03:40:18;;;;;;;12.10;3.78;;;;;;;;;;5038134;28;20174;-64
2023/03/20 03:42:49;;;;;;;10.85;4.30;;;;;;;;;;5029973;28;20057;-64
2023/03/20 03:45:16;;;;;;;11.02;3.92;;;;;;;;;;5039492;28;20060;-63
2023/03/20 03:47:45;;;;;;;9.05;3.75;;;;;;;;;;5018920;28;20066;-63
2023/03/20 03:50:13;;;;;;;12.20;4.32;;;;;;;;;;5023101;28;20152;-63
2023/03/20 03:52:42;;;;;;;9.45;4.00;;;;;;;;;;5009289;28;20084;-63
2023/03/20 03:55:10;;;;;;;8.95;3.70;;;;;;;;;;5035157;28;20114;-64
2023/03/20 03:57:40;;;;;;;11.68;4.20;;;;;;;;;;5013352;28;20170;-63
2023/03/20 04:00:10;;;;;;;12.23;4.45;;;;;;;;;;5016392;28;20118;-62
2023/03/20 04:02:37;;;;;;;12.45;4.60;;;;;;;;;;4991276;28;20045;-63
2023/03/20 04:05:05;;;;;;;9.48;3.88;;;;;;;;;;5033116;28;20065;-63
2023/03/20 04:07:32;;;;;;;9.57;4.05;;;;;;;;;;5026012;28;20318;-63
2023/03/20 04:09:58;;;;;;;10.88;4.07;;;;;;;;;;5038527;28;20059;-63
2023/03/20 04:12:35;;;;;;;12.05;4.38;;;;;;;;;;4999917;28;20059;-64
2023/03/20 04:15:03;;;;;;;10.13;4.43;;;;;;;;;;4995503;28;20053;-63
2023/03/20 04:17:30;;;;;;;12.43;4.75;;;;;;;;;;5018338;28;20111;-63
2023/03/20 04:19:57;;;;;;;12.68;4.53;;;;;;;;;;5019440;28;20064;-64
2023/03/20 04:22:23;;;;;;;11.15;4.75;;;;;;;;;;5026654;28;20068;-65
2023/03/20 04:24:50;;;;;;;12.50;5.15;;;;;;;;;;5018278;28;20089;-63
2023/03/20 04:27:16;;;;;;;11.93;4.68;;;;;;;;;;5036956;28;20061;-63
2023/03/20 04:29:43;;;;;;;12.73;4.82;;;;;;;;;;5027288;28;20117;-63
2023/03/20 04:32:11;;;;;;;12.43;4.57;;;;;;;;;;4996557;28;20224;-63
2023/03/20 04:34:37;;;;;;;10.23;4.40;;;;;;;;;;5001372;28;20152;-63
2023/03/20 04:37:04;;;;;;;13.10;4.97;;;;;;;;;;5027092;28;20045;-63
2023/03/20 04:39:30;;;;;;;15.90;5.13;;;;;;;;;;5018341;28;20057;-63
2023/03/20 04:41:57;;;;;;;12.63;5.30;;;;;;;;;;5038591;28;20287;-64
2023/03/20 04:44:24;;;;;;;11.48;4.97;;;;;;;;;;5015232;28;20057;-65
2023/03/20 04:46:50;;;;;;;14.20;5.65;;;;;;;;;;5014389;28;20068;-63
2023/03/20 04:49:19;;;;;;;19.45;5.72;;;;;;;;;;4994992;28;20076;-63
2023/03/20 04:51:45;;;;;;;15.32;5.40;;;;;;;;;;5002973;28;20068;-63
2023/03/20 04:54:11;;;;;;;13.30;5.65;;;;;;;;;;5030951;28;20053;-63
2023/03/20 04:56:38;;;;;;;12.88;5.00;;;;;;;;;;5011931;28;20076;-63
2023/03/20 04:59:04;;;;;;;15.52;5.95;;;;;;;;;;5014879;28;20142;-62
2023/03/20 05:01:31;;;;;;;14.30;5.53;;;;;;;;;;5024186;28;20338;-63
2023/03/20 05:03:59;;;;;;;12.88;5.65;;;;;;;;;;5031482;28;20074;-63
2023/03/20 05:06:27;;;;;;;13.27;5.60;;;;;;;;;;5030588;28;20048;-63
2023/03/20 05:08:54;;;;;;;15.32;6.30;;;;;;;;;;5011379;28;20148;-63
2023/03/20 05:11:20;;;;;;;12.65;5.75;;;;;;;;;;5006133;28;20153;-63
2023/03/20 05:13:46;;;;;;;11.80;5.45;;;;;;;;;;5006135;28;20053;-63
2023/03/20 05:16:13;;;;;;;12.85;5.50;;;;;;;;;;5043193;28;20052;-63
2023/03/20 05:18:40;;;;;;;13.80;6.18;;;;;;;;;;5029060;28;20061;-63
2023/03/20 05:21:07;;;;;;;13.68;5.38;;;;;;;;;;5018989;28;20057;-64
2023/03/20 05:23:35;;;;;;;14.82;5.45;;;;;;;;;;4998808;28;20053;-63
2023/03/20 05:26:01;;;;;;;13.48;6.15;;;;;;;;;;5020500;28;20160;-63
2023/03/20 05:28:28;;;;;;;14.98;5.65;;;;;;;;;;5028922;28;20135;-63
2023/03/20 05:30:54;;;;;;;14.65;6.13;;;;;;;;;;5031496;28;20080;-63
2023/03/20 05:33:21;;;;;;;15.13;5.25;;;;;;;;;;5035426;28;20055;-64
2023/03/20 05:35:47;;;;;;;12.25;5.53;;;;;;;;;;5023841;28;20119;-63
2023/03/20 05:38:15;;;;;;;12.10;5.65;;;;;;;;;;5015707;28;20147;-64
2023/03/20 05:40:42;;;;;;;11.73;5.47;;;;;;;;;;5009736;28;20401;-63
2023/03/20 05:43:09;;;;;;;14.53;5.97;;;;;;;;;;5033940;28;20185;-63
2023/03/20 05:45:35;;;;;;;13.90;5.68;;;;;;;;;;5015872;28;20344;-64
2023/03/20 05:48:02;;;;;;;12.13;5.30;;;;;;;;;;5035492;28;20079;-63
2023/03/20 05:50:28;;;;;;;14.43;5.38;;;;;;;;;;5028191;28;20060;-64
2023/03/20 05:52:55;;;;;;;12.65;5.07;;;;;;;;;;5023658;28;20049;-63
2023/03/20 05:55:21;;;;;;;12.40;5.30;;;;;;;;;;5031179;28;20048;-63
2023/03/20 05:57:49;;;;;;;13.85;5.68;;;;;;;;;;5027403;28;20583;-65
2023/03/20 06:00:16;;;;;;;11.30;5.13;;;;;;;;;;5034546;28;28917;-63
2023/03/20 06:02:43;;;;;;;14.65;5.50;;;;;;;;;;5003880;28;20053;-64
2023/03/20 06:05:09;;;;;;;12.13;5.38;;;;;;;;;;5028568;28;20195;-63
2023/03/20 06:07:36;;;;;;;14.73;5.55;;;;;;;;;;5028530;28;20098;-64
2023/03/20 06:10:04;;;;;;;15.00;5.72;;;;;;;;;;5034496;28;20076;-63
2023/03/20 06:12:30;;;;;;;13.47;5.70;;;;;;;;;;5021111;28;20060;-63
2023/03/20 06:14:58;;;;;;;13.57;4.70;;;;;;;;;;5028943;28;20053;-66
2023/03/20 06:17:25;;;;;;;13.65;5.45;;;;;;;;;;5030715;28;20056;-65
2023/03/20 06:19:54;;;;;;;12.93;5.00;;;;;;;;;;5038097;28;20137;-65
2023/03/20 06:22:23;;;;;;;15.52;5.68;;;;;;;;;;5033604;28;20219;-66
2023/03/20 06:24:49;;;;;;;12.05;5.70;;;;;;;;;;5027042;28;20052;-66
2023/03/20 06:27:16;;;;;;;17.55;5.93;;;;;;;;;;5032476;28;20147;-66
2023/03/20 06:29:42;;;;;;;16.35;5.57;;;;;;;;;;5028560;28;20057;-67
2023/03/20 06:32:13;;;;;;;14.38;5.55;;;;;;;;;;5032326;28;20060;-66
2023/03/20 06:34:42;;;;;;;12.70;5.03;;;;;;;;;;5020106;28;20063;-66
2023/03/20 06:37:09;;;;;;;11.55;5.05;;;;;;;;;;5032141;28;20057;-65
2023/03/20 06:39:35;;;;;;;11.05;5.55;;;;;;;;;;5035024;28;20110;-66
2023/03/20 06:42:02;;;;;;;11.48;5.35;;;;;;;;;;5030868;28;20053;-66
2023/03/20 06:44:28;;;;;;;14.80;5.75;;;;;;;;;;5006832;28;20084;-66
2023/03/20 06:46:54;;;;;;;18.92;6.43;;;;;;;;;;5023267;28;20088;-63
2023/03/20 06:49:22;;;;;;;12.63;5.15;;;;;;;;;;5007633;28;20150;-63
2023/03/20 06:51:49;;;;;;;13.00;5.18;;;;;;;;;;5020961;28;20059;-64
2023/03/20 06:54:16;;;;;;;16.05;5.88;;;;;;;;;;5018954;28;20064;-64
2023/03/20 06:56:42;;;;;;;17.08;6.10;;;;;;;;;;5030464;28;20052;-63
2023/03/20 06:59:09;;;;;;;12.82;5.20;;;;;;;;;;5034182;28;20077;-63
2023/03/20 07:01:35;;;;;;;13.73;5.75;;;;;;;;;;5038148;28;20110;-63
2023/03/20 07:04:02;;;;;;;11.15;5.30;;;;;;;;;;5028203;28;20063;-63
2023/03/20 07:06:30;;;;;;;13.88;5.65;;;;;;;;;;4992722;28;20064;-63
2023/03/20 07:08:56;;;;;;;15.63;5.60;;;;;;;;;;5003974;28;20123;-63
2023/03/20 07:11:22;;;;;;;14.25;5.85;;;;;;;;;;5038659;28;20410;-63
2023/03/20 07:13:49;;;;;;;11.30;5.38;;;;;;;;;;5036807;28;20060;-63
2023/03/20 07:16:16;;;;;;;13.68;5.40;;;;;;;;;;5013173;28;20057;-63
2023/03/20 07:18:42;;;;;;;13.85;5.25;;;;;;;;;;4994374;28;20057;-62
2023/03/20 07:21:11;;;;;;;16.50;5.75;;;;;;;;;;5028206;28;20045;-62
2023/03/20 07:23:39;;;;;;;12.32;5.03;;;;;;;;;;5020041;28;20257;-63
2023/03/20 07:26:06;;;;;;;12.70;5.43;;;;;;;;;;5015152;28;20059;-63
2023/03/20 07:28:33;;;;;;;12.52;5.05;;;;;;;;;;5013097;28;20671;-63
2023/03/20 07:31:01;;;;;;;15.05;5.80;;;;;;;;;;5019473;28;20139;-63
2023/03/20 07:33:27;;;;;;;12.98;5.60;;;;;;;;;;5036910;28;20061;-63
2023/03/20 07:35:54;;;;;;;12.50;5.20;;;;;;;;;;5021507;28;20151;-62
2023/03/20 07:38:21;;;;;;;14.82;5.50;;;;;;;;;;5014248;28;20141;-63
2023/03/20 07:40:49;;;;;;;13.32;5.40;;;;;;;;;;5014010;28;20061;-63
2023/03/20 07:43:16;;;;;;;14.50;5.27;;;;;;;;;;5002069;28;20076;-63
2023/03/20 07:45:42;;;;;;;13.82;5.00;;;;;;;;;;4993713;28;20053;-63
2023/03/20 07:48:12;;;;;;;16.05;5.90;;;;;;;;;;5000605;28;20139;-63
2023/03/20 07:50:38;;;;;;;14.80;5.68;;;;;;;;;;4979479;28;20061;-63
2023/03/20 07:53:05;;;;;;;17.48;5.97;;;;;;;;;;4995375;28;20061;-63
2023/03/20 07:55:31;;;;;;;15.82;5.68;;;;;;;;;;4992017;28;20145;-62
2023/03/20 07:57:59;;;;;;;12.23;4.88;;;;;;;;;;5014781;28;20164;-63
2023/03/20 08:00:28;;;;;;;17.23;6.22;;;;;;;;;;5006797;28;20064;-63
2023/03/20 08:02:56;;;;;;;13.55;5.55;;;;;;;;;;5017023;28;20048;-62
2023/03/20 08:05:23;;;;;;;14.90;5.70;;;;;;;;;;5034794;28;20136;-63
2023/03/20 08:07:50;;;;;;;14.57;6.07;;;;;;;;;;5000433;28;20053;-63
2023/03/20 08:10:17;;;;;;;14.43;5.43;;;;;;;;;;5006326;28;20075;-62
2023/03/20 08:12:55;;;;;;;16.30;5.65;;;;;;;;;;4996873;28;20144;-63
2023/03/20 08:15:23;;;;;;;11.15;4.60;;;;;;;;;;4985191;28;20045;-63
2023/03/20 08:17:49;;;;;;;16.40;5.65;;;;;;;;;;4988613;28;20057;-63
2023/03/20 08:20:16;;;;;;;13.77;5.35;;;;;;;;;;4987084;28;20156;-63
2023/03/20 08:22:44;;;;;;;12.00;5.13;;;;;;;;;;5008073;28;20136;-63
2023/03/20 08:25:16;;;;;;;14.15;5.68;;;;;;;;;;4991953;28;20057;-64
2023/03/20 08:27:42;;;;;;;13.80;5.43;;;;;;;;;;4994534;28;20058;-63
2023/03/20 08:30:09;;;;;;;12.68;5.43;;;;;;;;;;5016429;28;20144;-63
2023/03/20 08:32:38;;;;;;;14.88;5.72;;;;;;;;;;5008979;28;20042;-63
2023/03/20 08:35:05;;;;;;;12.93;4.90;;;;;;;;;;5003895;28;20057;-63
2023/03/20 08:37:31;;;;;;;12.25;4.95;;;;;;;;;;5029951;28;20057;-64
2023/03/20 08:39:58;;;;;;;13.45;5.05;;;;;;;;;;5017650;28;20061;-64
2023/03/20 08:42:24;;;;;;;14.02;5.85;;;;;;;;;;5012675;28;20127;-64
2023/03/20 08:44:51;;;;;;;13.63;5.65;;;;;;;;;;4993022;28;20315;-63
2023/03/20 08:47:18;;;;;;;12.52;5.45;;;;;;;;;;5018197;28;20110;-65
2023/03/20 08:49:47;;;;;;;17.38;5.72;;;;;;;;;;4983637;28;20112;-63
2023/03/20 08:52:14;;;;;;;13.70;5.45;;;;;;;;;;4982311;28;20048;-63
2023/03/20 08:54:40;;;;;;;12.73;4.55;;;;;;;;;;4956392;28;20065;-64
2023/03/20 08:57:07;;;;;;;14.27;4.88;;;;;;;;;;4981875;28;20057;-62
2023/03/20 08:59:36;;;;;;;10.43;4.30;;;;;;;;;;4975208;28;20053;-62
2023/03/20 09:02:02;;;;;;;14.50;4.82;;;;;;;;;;4998097;28;20053;-63
2023/03/20 09:04:31;;;;;;;12.20;5.13;;;;;;;;;;4960255;28;20140;-63
2023/03/20 09:07:00;;;;;;;12.02;4.85;;;;;;;;;;4989147;28;20366;-63
2023/03/20 09:09:28;;;;;;;10.75;4.68;;;;;;;;;;4993702;28;20049;-63
2023/03/20 09:11:55;;;;;;;9.98;4.70;;;;;;;;;;4997468;28;20112;-64
2023/03/20 09:14:22;;;;;;;10.65;4.05;;;;;;;;;;4982191;28;20100;-65
2023/03/20 09:16:48;;;;;;;12.40;4.57;;;;;;;;;;4996935;28;20084;-63
2023/03/20 09:19:14;;;;;;;12.18;4.97;;;;;;;;;;5009032;28;20140;-63
2023/03/20 09:21:43;;;;;;;11.38;4.68;;;;;;;;;;4995157;28;20060;-64
2023/03/20 09:24:16;;;;;;;10.55;3.80;;;;;;;;;;4999061;28;20155;-64
2023/03/20 09:26:42;;;;;;;12.80;4.68;;;;;;;;;;4980452;28;20063;-62
2023/03/20 09:29:08;;;;;;;11.52;4.28;;;;;;;;;;5018134;28;20151;-63
2023/03/20 09:31:35;;;;;;;11.07;4.30;;;;;;;;;;5013305;28;20219;-63
2023/03/20 09:34:01;;;;;;;16.10;4.60;;;;;;;;;;5012890;28;20063;-63
2023/03/20 09:36:28;;;;;;;14.68;4.70;;;;;;;;;;4996502;28;20145;-63
2023/03/20 09:38:54;;;;;;;8.73;3.75;;;;;;;;;;5015786;28;20064;-64
2023/03/20 09:41:26;;;;;;;14.38;4.30;;;;;;;;;;4998136;28;20121;-63
2023/03/20 09:43:59;;;;;;;14.05;4.53;;;;;;;;;;4995475;28;20120;-64
2023/03/20 09:46:30;;;;;;;10.50;3.80;;;;;;;;;;4984819;28;20057;-64
2023/03/20 09:49:00;;;;;;;13.48;4.50;;;;;;;;;;5005043;28;20159;-64
2023/03/20 09:51:34;;;;;;;11.38;4.20;;;;;;;;;;4994908;28;20065;-64
2023/03/20 09:54:04;;;;;;;8.57;3.45;;;;;;;;;;4990026;28;20056;-64
2023/03/20 09:56:31;;;;;;;8.82;3.50;;;;;;;;;;4997183;28;20055;-63
2023/03/20 09:58:59;;;;;;;10.70;3.83;;;;;;;;;;4997026;28;20141;-63
2023/03/20 10:01:27;;;;;;;10.38;5.13;;;;;;;;;;4985653;28;20050;-63
2023/03/20 10:03:55;;;;;;;11.18;3.58;;;;;;;;;;4991103;28;20167;-63
2023/03/20 10:06:22;;;;;;;;;;;;;;;;;;4983034;28;20178;-64
2023/03/20 10:08:48;;;;;;;9.82;3.63;;;;;;;;;;5003940;28;19925;-64
2023/03/20 10:11:30;;;;;;;10.70;3.58;;;;;;;;;;5028802;28;20087;-64
2023/03/20 10:14:04;;;;;;;7.75;3.20;;;;;;;;;;4969472;28;20045;-63
2023/03/20 10:16:38;;;;;;;11.82;3.90;;;;;;;;;;4987992;28;20750;-63
2023/03/20 10:19:07;;;;;;;9.75;3.90;;;;;;;;;;4987792;28;20059;-64
2023/03/20 10:21:38;;;;;;;10.40;4.10;;;;;;;;;;4995923;28;20197;-63
2023/03/20 10:24:06;;;;;;;9.25;3.40;;;;;;;;;;4991561;28;20060;-65
2023/03/20 10:26:34;;;;;;;8.88;3.47;;;;;;;;;;5011182;28;20057;-64
2023/03/20 10:29:06;;;;;;;12.25;3.90;;;;;;;;;;4987303;28;20050;-63
2023/03/20 10:31:37;;;;;;;7.22;3.13;;;;;;;;;;4986829;28;20140;-63
2023/03/20 10:34:15;;;;;;;12.20;3.35;;;;;;;;;;4994271;28;20172;-64
2023/03/20 10:36:46;;;;;;;9.18;3.33;;;;;;;;;;4986017;28;20061;-64
2023/03/20 10:39:17;;;;;;;10.35;3.20;;;;;;;;;;5013659;28;20053;-64
2023/03/20 10:41:49;;;;;;;10.00;3.33;;;;;;;;;;4993363;28;20195;-64
2023/03/20 10:44:25;;;;;;;9.50;3.05;;;;;;;;;;5002014;28;20064;-64
2023/03/20 10:46:53;;;;;;;8.75;3.10;;;;;;;;;;5016095;28;20055;-64
2023/03/20 10:49:30;;;;;;;8.43;3.33;;;;;;;;;;5004429;28;20048;-63
2023/03/20 10:52:03;;;;;;;11.88;3.25;;;;;;;;;;5008331;28;20579;-66
2023/03/20 10:54:31;;;;;;;7.43;3.13;;;;;;;;;;4986738;28;20049;-65
2023/03/20 10:56:59;;;;;;;8.98;2.85;;;;;;;;;;5008866;28;20087;-64
2023/03/20 10:59:29;;;;;;;10.15;3.58;;;;;;;;;;5012369;28;20049;-64
2023/03/20 11:01:55;;;;;;;6.00;2.63;;;;;;;;;;5038475;28;20103;-64
2023/03/20 11:04:22;;;;;;;8.07;2.92;;;;;;;;;;4970963;28;20045;-64
2023/03/20 11:06:53;;;;;;;7.53;2.92;;;;;;;;;;5033582;28;20060;-64
2023/03/20 11:09:23;;;;;;;7.47;2.97;;;;;;;;;;5020769;28;20059;-64
2023/03/20 11:11:52;;;;;;;7.50;3.00;;;;;;;;;;5033693;28;20079;-64
2023/03/20 11:14:21;;;;;;;6.55;2.80;;;;;;;;;;5026536;28;20172;-64
2023/03/20 11:16:50;;;;;;;8.98;3.10;;;;;;;;;;4993175;28;20053;-64
2023/03/20 11:19:16;;;;;;;;;;;;;;;;;;5030490;28;20063;-64
2023/03/20 11:21:49;;;;;;;6.47;2.35;;;;;;;;;;5033526;28;19928;-64
2023/03/20 11:24:23;;;;;;;6.88;2.75;;;;;;;;;;5000896;28;20067;-64
2023/03/20 11:26:51;;;;;;;6.80;2.88;;;;;;;;;;5023383;28;20140;-65
2023/03/20 11:29:22;;;;;;;7.35;2.65;;;;;;;;;;5014326;28;20054;-65
2023/03/20 11:31:51;;;;;;;9.02;3.22;;;;;;;;;;5020192;28;20063;-64
2023/03/20 11:34:25;;;;;;;8.95;2.72;;;;;;;;;;5000814;28;20061;-63
2023/03/20 11:36:56;;;;;;;8.60;2.88;;;;;;;;;;4982638;28;20133;-64
2023/03/20 11:39:23;;;;;;;7.07;3.08;;;;;;;;;;4990737;28;20058;-65
2023/03/20 11:41:50;;;;;;;7.65;2.67;;;;;;;;;;5000738;28;20056;-64
2023/03/20 11:44:26;;;;;;;9.55;2.90;;;;;;;;;;5002666;28;20136;-65
2023/03/20 11:47:00;;;;;;;9.40;2.47;;;;;;;;;;4993048;28;20071;-64
2023/03/20 11:49:29;;;;;;;6.97;2.70;;;;;;;;;;5025281;28;20045;-65
2023/03/20 11:51:59;;;;;;;9.55;2.85;;;;;;;;;;4989095;28;20058;-65
2023/03/20 11:54:26;;;;;;;11.43;2.60;;;;;;;;;;4990945;28;20057;-65
2023/03/20 11:56:54;;;;;;;8.50;2.80;;;;;;;;;;4988304;28;20065;-64
2023/03/20 11:59:21;;;;;;;8.50;2.50;;;;;;;;;;4997864;28;20120;-65
2023/03/20 12:01:55;;;;;;;7.13;2.55;;;;;;;;;;4993874;28;20089;-63
2023/03/20 12:04:28;;;;;;;8.30;2.72;;;;;;;;;;4960521;28;20136;-66
2023/03/20 12:06:56;;;;;;;8.05;2.70;;;;;;;;;;4987329;28;20061;-63
2023/03/20 12:09:26;;;;;;;7.25;2.88;;;;;;;;;;5016313;28;20053;-63
2023/03/20 12:11:55;;;;;;;7.72;2.88;;;;;;;;;;4986657;28;20128;-63
2023/03/20 12:14:28;;;;;;;9.40;2.88;;;;;;;;;;4969112;28;20058;-65
2023/03/20 12:16:58;;;;;;;7.38;3.10;;;;;;;;;;4988202;28;20053;-65
2023/03/20 12:19:29;;;;;;;8.00;3.10;;;;;;;;;;4998598;28;20091;-65
2023/03/20 12:22:02;;;;;;;10.30;2.85;;;;;;;;;;4995383;28;20136;-65
2023/03/20 12:24:31;;;;;;;10.43;3.03;;;;;;;;;;5005813;28;20061;-65
2023/03/20 12:27:00;;;;;;;7.72;3.13;;;;;;;;;;4995862;28;20148;-65
2023/03/20 12:29:30;;;;;;;8.07;2.80;;;;;;;;;;5005662;28;20068;-67
2023/03/20 12:32:01;;;;;;;8.98;2.90;;;;;;;;;;5018568;28;20106;-66
2023/03/20 12:34:32;;;;;;;9.00;3.20;;;;;;;;;;5006142;28;20137;-66
2023/03/20 12:37:01;;;;;;;10.55;3.55;;;;;;;;;;5007780;28;20124;-65
2023/03/20 12:39:33;;;;;;;8.20;3.13;;;;;;;;;;4985618;28;20161;-66
2023/03/20 12:42:07;;;;;;;8.05;2.70;;;;;;;;;;4982928;28;20140;-66
2023/03/20 12:44:36;;;;;;;11.63;3.10;;;;;;;;;;4994742;28;20080;-66
2023/03/20 12:47:09;;;;;;;8.55;3.53;;;;;;;;;;4999626;28;20061;-67
2023/03/20 12:49:43;;;;;;;10.15;3.15;;;;;;;;;;4997895;28;20072;-65
2023/03/20 12:52:21;;;;;;;8.32;2.80;;;;;;;;;;4981668;28;20064;-65
2023/03/20 12:55:01;;;;;;;10.02;3.30;;;;;;;;;;4985675;28;20069;-64
2023/03/20 12:57:32;;;;;;;7.30;2.88;;;;;;;;;;4997493;28;20065;-65
2023/03/20 13:00:09;;;;;;;10.65;3.17;;;;;;;;;;5003806;28;20132;-65
2023/03/20 13:02:42;;;;;;;12.82;3.55;;;;;;;;;;4966674;28;20077;-65
2023/03/20 13:05:17;;;;;;;9.93;3.25;;;;;;;;;;4985748;28;20064;-66
2023/03/20 13:07:55;;;;;;;7.88;3.00;;;;;;;;;;4985085;28;20057;-65
2023/03/20 13:10:30;;;;;;;;;;;;;;;;;;4984995;28;20049;-65
2023/03/20 13:13:03;;;;;;;6.57;2.90;;;;;;;;;;5004149;28;20047;-64
2023/03/20 13:15:36;;;;;;;8.73;2.80;;;;;;;;;;4977414;28;20077;-65
2023/03/20 13:18:06;;;;;;;10.70;3.10;;;;;;;;;;4977621;28;20077;-65
2023/03/20 13:20:36;;;;;;;7.60;3.05;;;;;;;;;;4974925;28;20073;-66
2023/03/20 13:23:20;;;;;;;11.63;3.45;;;;;;;;;;4997589;28;20088;-65
2023/03/20 13:25:59;;;;;;;8.68;3.28;;;;;;;;;;4974584;28;20124;-65
2023/03/20 13:28:29;;;;;;;9.65;3.20;;;;;;;;;;4972783;28;20069;-65
2023/03/20 13:30:58;;;;;;;7.57;3.30;;;;;;;;;;5010769;28;20061;-65
2023/03/20 13:33:35;;;;;;;10.20;3.50;;;;;;;;;;4993789;28;20105;-66
2023/03/20 13:36:12;;;;;;;7.35;3.05;;;;;;;;;;4993202;28;20065;-66
2023/03/20 13:38:42;;;;;;;10.02;3.42;;;;;;;;;;5002698;28;20060;-66
2023/03/20 13:41:13;;;;;;;14.13;4.55;;;;;;;;;;4974813;28;20076;-67
2023/03/20 13:43:41;;;;;;;13.30;3.63;;;;;;;;;;4993853;28;20049;-66
2023/03/20 13:46:10;;;;;;;12.60;3.72;;;;;;;;;;4975353;28;20081;-67
2023/03/20 13:48:38;;;;;;;11.75;4.00;;;;;;;;;;4992634;28;20286;-67
2023/03/20 13:51:14;;;;;;;11.15;4.03;;;;;;;;;;4993235;28;20049;-68
2023/03/20 13:53:48;;;;;;;9.85;3.63;;;;;;;;;;4997898;28;20049;-67
2023/03/20 13:56:22;;;;;;;11.38;3.45;;;;;;;;;;4991883;28;20567;-67
2023/03/20 13:59:07;;;;;;;7.38;3.35;;;;;;;;;;4974656;28;20065;-67
2023/03/20 14:01:44;;;;;;;9.20;3.28;;;;;;;;;;4990934;28;20179;-65
2023/03/20 14:04:20;;;;;;;11.00;4.10;;;;;;;;;;4991541;28;20055;-67
2023/03/20 14:06:51;;;;;;;8.60;3.85;;;;;;;;;;4963784;28;20476;-66
2023/03/20 14:09:25;;;;;;;12.07;3.60;;;;;;;;;;5013644;28;20084;-66
2023/03/20 14:11:53;;;;;;;7.65;3.30;;;;;;;;;;4993471;28;20071;-65
2023/03/20 14:14:24;;;;;;;9.73;3.58;;;;;;;;;;5011839;28;20053;-68
2023/03/20 14:16:59;;;;;;;9.70;4.38;;;;;;;;;;4992179;28;20057;-67
2023/03/20 14:19:26;;;;;;;10.63;3.60;;;;;;;;;;4998183;28;20103;-66
2023/03/20 14:22:00;;;;;;;9.27;3.80;;;;;;;;;;4979720;28;20057;-66
2023/03/20 14:24:35;;;;;;;10.35;3.45;;;;;;;;;;4992769;28;20081;-67
2023/03/20 14:27:05;;;;;;;11.48;3.85;;;;;;;;;;4937178;28;20064;-66
2023/03/20 14:29:35;;;;;;;13.60;4.32;;;;;;;;;;4985348;28;20053;-67
2023/03/20 14:32:03;;;;;;;10.80;3.60;;;;;;;;;;4975996;28;20119;-67
2023/03/20 14:34:51;;;;;;;7.95;3.22;;;;;;;;;;4987968;28;20046;-68
2023/03/20 14:37:29;;;;;;;11.18;3.72;;;;;;;;;;4964253;28;20052;-68
2023/03/20 14:40:10;;;;;;;9.35;3.97;;;;;;;;;;4979708;28;20065;-67
2023/03/20 14:42:48;;;;;;;7.18;3.28;;;;;;;;;;4991862;28;20049;-66
2023/03/20 14:45:26;;;;;;;9.88;3.70;;;;;;;;;;4964273;28;20045;-66
2023/03/20 14:47:53;;;;;;;;;;;;;;;;;;4965322;28;20069;-67